createdAt,value
2018-08-30T00:00:29.121Z,1002.34
2018-08-30T00:01:29.089Z,1002.47
2018-08-30T00:02:29.075Z,1002.42
2018-08-30T00:03:29.057Z,1002.51
2018-08-30T00:04:29.024Z,1002.46
2018-08-30T00:05:28.990Z,1002.43
2018-08-30T00:06:28.973Z,1002.55
2018-08-30T00:07:28.963Z,1002.51
2018-08-30T00:08:28.911Z,1002.56
2018-08-30T00:09:28.892Z,1002.54
2018-08-30T00:10:28.863Z,1002.62
2018-08-30T00:11:28.832Z,1002.58
2018-08-30T00:12:28.812Z,1002.57
2018-08-30T00:13:28.788Z,1002.64
2018-08-30T00:14:28.757Z,1002.60
2018-08-30T00:15:28.732Z,1002.74
2018-08-30T00:16:28.717Z,1002.67
2018-08-30T00:17:28.683Z,1002.74
2018-08-30T00:18:28.655Z,1002.70
2018-08-30T00:19:28.633Z,1002.67
2018-08-30T00:20:28.601Z,1002.69
2018-08-30T00:21:28.580Z,1002.72
2018-08-30T00:22:28.549Z,1002.79
2018-08-30T00:23:28.523Z,1003.05
2018-08-30T00:24:28.498Z,1002.85
2018-08-30T00:25:28.473Z,1002.78
2018-08-30T00:26:28.450Z,1002.86
2018-08-30T00:27:29.020Z,1003.00
2018-08-30T00:28:28.393Z,1002.95
2018-08-30T00:29:28.368Z,1003.06
2018-08-30T00:30:28.344Z,1002.95
2018-08-30T00:31:28.320Z,1002.91
2018-08-30T00:32:28.292Z,1003.09
2018-08-30T00:33:28.266Z,1003.02
2018-08-30T00:34:28.240Z,1003.08
2018-08-30T00:35:28.218Z,1003.01
2018-08-30T00:36:28.190Z,1003.06
2018-08-30T00:37:28.162Z,1003.10
2018-08-30T00:38:28.136Z,1003.06
2018-08-30T00:39:28.112Z,1003.15
2018-08-30T00:40:28.081Z,1003.19
2018-08-30T00:41:28.120Z,1003.11
2018-08-30T00:42:28.029Z,1003.11
2018-08-30T00:43:28.002Z,1003.20
2018-08-30T00:44:27.982Z,1003.17
2018-08-30T00:45:27.953Z,1003.21
2018-08-30T00:46:27.927Z,1003.25
2018-08-30T00:47:27.903Z,1003.26
2018-08-30T00:48:27.874Z,1003.28
2018-08-30T00:49:27.858Z,1003.24
2018-08-30T00:50:27.825Z,1003.28
2018-08-30T00:51:27.794Z,1003.30
2018-08-30T00:52:27.767Z,1003.39
2018-08-30T00:53:27.741Z,1003.28
2018-08-30T00:54:27.726Z,1003.23
2018-08-30T00:55:27.695Z,1003.36
2018-08-30T00:56:27.668Z,1003.45
2018-08-30T00:57:27.645Z,1003.32
2018-08-30T00:58:27.612Z,1003.34
2018-08-30T00:59:27.585Z,1003.40
2018-08-30T01:00:27.563Z,1003.33
2018-08-30T01:01:27.546Z,1003.43
2018-08-30T01:02:27.509Z,1003.48
2018-08-30T01:03:27.494Z,1003.49
2018-08-30T01:04:27.454Z,1003.48
2018-08-30T01:05:27.437Z,1003.50
2018-08-30T01:06:27.413Z,1003.44
2018-08-30T01:07:27.376Z,1003.53
2018-08-30T01:08:27.353Z,1003.61
2018-08-30T01:09:27.332Z,1003.59
2018-08-30T01:10:27.305Z,1003.63
2018-08-30T01:11:27.271Z,1003.64
2018-08-30T01:12:27.258Z,1003.64
2018-08-30T01:13:27.233Z,1003.63
2018-08-30T01:14:27.200Z,1003.65
2018-08-30T01:15:27.176Z,1003.68
2018-08-30T01:16:27.145Z,1003.63
2018-08-30T01:17:27.123Z,1003.64
2018-08-30T01:18:27.093Z,1003.69
2018-08-30T01:19:27.068Z,1003.65
2018-08-30T01:20:27.047Z,1003.67
2018-08-30T01:21:27.526Z,1003.69
2018-08-30T01:22:26.997Z,1003.72
2018-08-30T01:23:26.964Z,1003.69
2018-08-30T01:24:26.941Z,1003.71
2018-08-30T01:25:26.918Z,1003.77
2018-08-30T01:26:26.882Z,1003.81
2018-08-30T01:27:26.857Z,1003.76
2018-08-30T01:28:26.834Z,1003.74
2018-08-30T01:29:26.813Z,1003.79
2018-08-30T01:30:26.786Z,1003.84
2018-08-30T01:31:26.759Z,1003.82
2018-08-30T01:32:26.727Z,1003.86
2018-08-30T01:33:26.705Z,1003.92
2018-08-30T01:34:26.675Z,1003.86
2018-08-30T01:35:26.650Z,1003.86
2018-08-30T01:36:26.633Z,1003.84
2018-08-30T01:37:26.598Z,1003.89
2018-08-30T01:38:26.576Z,1003.88
2018-08-30T01:39:26.556Z,1003.82
2018-08-30T01:40:26.522Z,1003.82
2018-08-30T01:41:26.495Z,1003.84
2018-08-30T01:42:26.473Z,1003.86
2018-08-30T01:43:26.444Z,1003.81
2018-08-30T01:44:26.422Z,1003.84
2018-08-30T01:45:26.391Z,1003.83
2018-08-30T01:46:26.376Z,1003.85
2018-08-30T01:47:26.344Z,1003.84
2018-08-30T01:48:26.313Z,1003.89
2018-08-30T01:49:26.284Z,1003.92
2018-08-30T01:50:26.271Z,1003.93
2018-08-30T01:51:26.236Z,1003.91
2018-08-30T01:52:26.217Z,1003.97
2018-08-30T01:53:26.190Z,1003.93
2018-08-30T01:54:26.155Z,1003.91
2018-08-30T01:55:26.145Z,1003.95
2018-08-30T01:56:26.103Z,1003.92
2018-08-30T01:57:26.092Z,1003.95
2018-08-30T01:58:26.060Z,1003.92
2018-08-30T01:59:26.026Z,1003.93
2018-08-30T02:00:26.008Z,1003.97
2018-08-30T02:01:25.978Z,1004.01
2018-08-30T02:02:25.954Z,1004.05
2018-08-30T02:03:25.935Z,1003.99
2018-08-30T02:04:25.899Z,1004.00
2018-08-30T02:05:25.875Z,1004.04
2018-08-30T02:06:25.851Z,1004.05
2018-08-30T02:07:25.821Z,1004.03
2018-08-30T02:08:25.797Z,1004.01
2018-08-30T02:09:25.773Z,1004.00
2018-08-30T02:10:25.749Z,1003.95
2018-08-30T02:11:25.720Z,1003.95
2018-08-30T02:12:25.696Z,1003.95
2018-08-30T02:13:25.667Z,1003.96
2018-08-30T02:14:25.651Z,1003.93
2018-08-30T02:15:25.615Z,1003.99
2018-08-30T02:16:25.599Z,1003.97
2018-08-30T02:17:25.560Z,1003.95
2018-08-30T02:18:25.537Z,1003.96
2018-08-30T02:19:25.513Z,1003.94
2018-08-30T02:20:25.498Z,1003.89
2018-08-30T02:21:25.457Z,1003.91
2018-08-30T02:22:25.439Z,1003.91
2018-08-30T02:23:25.409Z,1003.91
2018-08-30T02:24:25.380Z,1003.92
2018-08-30T02:25:25.362Z,1003.96
2018-08-30T02:26:25.330Z,1003.93
2018-08-30T02:27:25.307Z,1003.95
2018-08-30T02:28:25.281Z,1004.00
2018-08-30T02:29:25.267Z,1004.02
2018-08-30T02:30:25.235Z,1003.98
2018-08-30T02:31:25.196Z,1004.06
2018-08-30T02:32:25.201Z,1004.01
2018-08-30T02:33:25.148Z,1004.04
2018-08-30T02:34:25.124Z,1004.03
2018-08-30T02:35:25.154Z,1004.06
2018-08-30T02:36:25.076Z,1004.06
2018-08-30T02:37:25.052Z,1004.07
2018-08-30T02:38:25.019Z,1004.08
2018-08-30T02:39:25.002Z,1004.07
2018-08-30T02:40:24.976Z,1004.08
2018-08-30T02:41:24.939Z,1004.08
2018-08-30T02:42:24.923Z,1004.10
2018-08-30T02:43:24.894Z,1004.07
2018-08-30T02:44:24.866Z,1004.12
2018-08-30T02:45:24.837Z,1004.13
2018-08-30T02:46:24.820Z,1004.15
2018-08-30T02:47:24.790Z,1004.22
2018-08-30T02:48:24.760Z,1004.25
2018-08-30T02:49:24.737Z,1004.18
2018-08-30T02:50:24.711Z,1004.19
2018-08-30T02:51:24.680Z,1004.25
2018-08-30T02:52:24.667Z,1004.28
2018-08-30T02:53:24.630Z,1004.22
2018-08-30T02:54:24.616Z,1004.24
2018-08-30T02:55:24.578Z,1004.28
2018-08-30T02:56:24.559Z,1004.26
2018-08-30T02:57:24.534Z,1004.28
2018-08-30T02:58:24.503Z,1004.24
2018-08-30T02:59:24.484Z,1004.23
2018-08-30T03:00:24.451Z,1004.25
2018-08-30T03:01:24.429Z,1004.26
2018-08-30T03:02:24.405Z,1004.29
2018-08-30T03:03:24.380Z,1004.28
2018-08-30T03:04:24.352Z,1004.27
2018-08-30T03:05:24.334Z,1004.28
2018-08-30T03:06:24.305Z,1004.28
2018-08-30T03:07:24.273Z,1004.29
2018-08-30T03:08:24.248Z,1004.32
2018-08-30T03:09:25.046Z,1004.34
2018-08-30T03:10:24.195Z,1004.31
2018-08-30T03:11:24.165Z,1004.30
2018-08-30T03:12:24.148Z,1004.35
2018-08-30T03:13:24.116Z,1004.37
2018-08-30T03:14:24.097Z,1004.34
2018-08-30T03:15:24.067Z,1004.35
2018-08-30T03:16:24.036Z,1004.36
2018-08-30T03:17:24.017Z,1004.35
2018-08-30T03:18:23.985Z,1004.35
2018-08-30T03:19:23.966Z,1004.39
2018-08-30T03:20:23.932Z,1004.40
2018-08-30T03:21:23.910Z,1004.43
2018-08-30T03:22:23.890Z,1004.44
2018-08-30T03:23:23.860Z,1004.45
2018-08-30T03:24:23.837Z,1004.46
2018-08-30T03:25:23.810Z,1004.45
2018-08-30T03:26:24.550Z,1004.43
2018-08-30T03:27:23.788Z,1004.41
2018-08-30T03:28:23.729Z,1004.45
2018-08-30T03:29:23.720Z,1004.45
2018-08-30T03:30:23.871Z,1004.47
2018-08-30T03:31:23.650Z,1004.49
2018-08-30T03:32:23.627Z,1004.48
2018-08-30T03:33:23.602Z,1004.46
2018-08-30T03:34:23.580Z,1004.46
2018-08-30T03:35:23.550Z,1004.46
2018-08-30T03:36:23.519Z,1004.50
2018-08-30T03:37:23.501Z,1004.51
2018-08-30T03:38:23.469Z,1004.52
2018-08-30T03:39:23.448Z,1004.57
2018-08-30T03:40:23.427Z,1004.52
2018-08-30T03:41:23.392Z,1004.51
2018-08-30T03:42:23.380Z,1004.61
2018-08-30T03:43:23.345Z,1004.53
2018-08-30T03:44:23.325Z,1004.57
2018-08-30T03:45:23.291Z,1004.58
2018-08-30T03:46:23.265Z,1004.59
2018-08-30T03:47:23.239Z,1004.59
2018-08-30T03:48:23.231Z,1004.58
2018-08-30T03:49:23.208Z,1004.62
2018-08-30T03:50:23.163Z,1004.61
2018-08-30T03:51:23.143Z,1004.62
2018-08-30T03:52:23.108Z,1004.61
2018-08-30T03:53:23.084Z,1004.64
2018-08-30T03:54:23.058Z,1004.59
2018-08-30T03:55:23.028Z,1004.63
2018-08-30T03:56:23.007Z,1004.63
2018-08-30T03:57:22.978Z,1004.65
2018-08-30T03:58:22.962Z,1004.60
2018-08-30T03:59:22.925Z,1004.63
2018-08-30T04:00:22.915Z,1004.66
2018-08-30T04:01:22.887Z,1004.62
2018-08-30T04:02:23.555Z,1004.62
2018-08-30T04:03:22.834Z,1004.61
2018-08-30T04:04:22.955Z,1004.63
2018-08-30T04:05:22.771Z,1004.66
2018-08-30T04:06:22.747Z,1004.64
2018-08-30T04:07:22.719Z,1004.65
2018-08-30T04:08:22.704Z,1004.63
2018-08-30T04:09:22.674Z,1004.69
2018-08-30T04:10:22.651Z,1004.70
2018-08-30T04:11:22.627Z,1004.67
2018-08-30T04:12:22.600Z,1004.63
2018-08-30T04:13:22.612Z,1004.65
2018-08-30T04:14:22.539Z,1004.69
2018-08-30T04:15:22.521Z,1004.70
2018-08-30T04:16:22.486Z,1004.66
2018-08-30T04:17:22.470Z,1004.68
2018-08-30T04:18:22.485Z,1004.65
2018-08-30T04:19:22.410Z,1004.71
2018-08-30T04:20:23.062Z,1004.69
2018-08-30T04:21:22.366Z,1004.71
2018-08-30T04:22:22.340Z,1004.69
2018-08-30T04:23:22.315Z,1004.69
2018-08-30T04:24:22.282Z,1004.67
2018-08-30T04:25:22.264Z,1004.73
2018-08-30T04:26:22.242Z,1004.73
2018-08-30T04:27:22.241Z,1004.74
2018-08-30T04:28:22.180Z,1004.76
2018-08-30T04:29:22.161Z,1004.75
2018-08-30T04:30:22.130Z,1004.77
2018-08-30T04:31:22.180Z,1004.78
2018-08-30T04:32:22.078Z,1004.79
2018-08-30T04:33:22.052Z,1004.74
2018-08-30T04:34:22.029Z,1004.74
2018-08-30T04:35:22.016Z,1004.79
2018-08-30T04:36:21.979Z,1004.82
2018-08-30T04:37:21.952Z,1004.83
2018-08-30T04:38:22.565Z,1004.81
2018-08-30T04:39:21.902Z,1004.87
2018-08-30T04:40:21.890Z,1004.83
2018-08-30T04:41:21.855Z,1004.86
2018-08-30T04:42:21.869Z,1004.87
2018-08-30T04:43:21.796Z,1004.89
2018-08-30T04:44:21.767Z,1004.83
2018-08-30T04:45:21.747Z,1004.89
2018-08-30T04:46:21.724Z,1004.88
2018-08-30T04:47:21.697Z,1004.93
2018-08-30T04:48:21.669Z,1004.93
2018-08-30T04:49:21.645Z,1004.99
2018-08-30T04:50:21.668Z,1004.97
2018-08-30T04:51:21.585Z,1004.97
2018-08-30T04:52:21.570Z,1004.99
2018-08-30T04:53:21.544Z,1005.01
2018-08-30T04:54:21.514Z,1005.03
2018-08-30T04:55:21.491Z,1005.04
2018-08-30T04:56:21.468Z,1005.00
2018-08-30T04:57:21.430Z,1005.03
2018-08-30T04:58:21.417Z,1005.07
2018-08-30T04:59:21.384Z,1005.02
2018-08-30T05:00:21.356Z,1005.05
2018-08-30T05:01:21.326Z,1005.10
2018-08-30T05:02:21.316Z,1005.10
2018-08-30T05:03:21.285Z,1005.11
2018-08-30T05:04:21.261Z,1005.10
2018-08-30T05:05:21.232Z,1005.08
2018-08-30T05:06:21.200Z,1005.11
2018-08-30T05:07:21.181Z,1005.08
2018-08-30T05:08:21.147Z,1005.10
2018-08-30T05:09:21.128Z,1005.08
2018-08-30T05:10:21.107Z,1005.12
2018-08-30T05:11:21.076Z,1005.18
2018-08-30T05:12:21.049Z,1005.23
2018-08-30T05:13:21.024Z,1005.20
2018-08-30T05:14:21.572Z,1005.19
2018-08-30T05:15:20.974Z,1005.20
2018-08-30T05:16:20.992Z,1005.23
2018-08-30T05:17:20.926Z,1005.24
2018-08-30T05:18:20.933Z,1005.25
2018-08-30T05:19:20.873Z,1005.27
2018-08-30T05:20:20.884Z,1005.30
2018-08-30T05:21:20.815Z,1005.28
2018-08-30T05:22:20.801Z,1005.28
2018-08-30T05:23:20.781Z,1005.36
2018-08-30T05:24:20.746Z,1005.29
2018-08-30T05:25:20.711Z,1005.30
2018-08-30T05:26:20.694Z,1005.33
2018-08-30T05:27:20.664Z,1005.28
2018-08-30T05:28:20.642Z,1005.27
2018-08-30T05:29:20.618Z,1005.31
2018-08-30T05:30:20.582Z,1005.39
2018-08-30T05:31:20.566Z,1005.33
2018-08-30T05:32:20.552Z,1005.30
2018-08-30T05:33:20.510Z,1005.32
2018-08-30T05:34:20.488Z,1005.34
2018-08-30T05:35:20.462Z,1005.32
2018-08-30T05:36:20.428Z,1005.38
2018-08-30T05:37:20.409Z,1005.38
2018-08-30T05:38:20.380Z,1005.37
2018-08-30T05:39:20.353Z,1005.40
2018-08-30T05:40:20.336Z,1005.41
2018-08-30T05:41:20.306Z,1005.41
2018-08-30T05:42:20.280Z,1005.42
2018-08-30T05:43:20.250Z,1005.42
2018-08-30T05:44:20.229Z,1005.42
2018-08-30T05:45:20.201Z,1005.43
2018-08-30T05:46:20.171Z,1005.46
2018-08-30T05:47:20.150Z,1005.44
2018-08-30T05:48:20.134Z,1005.46
2018-08-30T05:49:20.105Z,1005.47
2018-08-30T05:50:20.576Z,1005.49
2018-08-30T05:51:20.049Z,1005.51
2018-08-30T05:52:20.024Z,1005.54
2018-08-30T05:53:19.997Z,1005.50
2018-08-30T05:54:19.970Z,1005.52
2018-08-30T05:55:19.943Z,1005.53
2018-08-30T05:56:19.918Z,1005.55
2018-08-30T05:57:19.890Z,1005.54
2018-08-30T05:58:19.878Z,1005.57
2018-08-30T05:59:19.847Z,1005.60
2018-08-30T06:00:19.814Z,1005.60
2018-08-30T06:01:19.797Z,1005.59
2018-08-30T06:02:19.767Z,1005.63
2018-08-30T06:03:19.739Z,1005.63
2018-08-30T06:04:19.714Z,1005.62
2018-08-30T06:05:19.693Z,1005.69
2018-08-30T06:06:19.662Z,1005.72
2018-08-30T06:07:19.710Z,1005.71
2018-08-30T06:08:20.598Z,1005.69
2018-08-30T06:09:19.588Z,1005.75
2018-08-30T06:10:19.562Z,1005.70
2018-08-30T06:11:19.527Z,1005.71
2018-08-30T06:12:19.516Z,1005.76
2018-08-30T06:13:19.489Z,1005.70
2018-08-30T06:14:19.450Z,1005.74
2018-08-30T06:15:19.426Z,1005.71
2018-08-30T06:16:19.405Z,1005.75
2018-08-30T06:17:19.414Z,1005.75
2018-08-30T06:18:19.356Z,1005.79
2018-08-30T06:19:19.328Z,1005.76
2018-08-30T06:20:19.297Z,1005.84
2018-08-30T06:21:19.306Z,1005.81
2018-08-30T06:22:19.267Z,1005.81
2018-08-30T06:23:19.221Z,1005.83
2018-08-30T06:24:19.201Z,1005.89
2018-08-30T06:25:19.178Z,1005.86
2018-08-30T06:26:20.089Z,1005.87
2018-08-30T06:27:19.124Z,1005.88
2018-08-30T06:28:19.094Z,1005.85
2018-08-30T06:29:19.134Z,1005.85
2018-08-30T06:30:19.049Z,1005.84
2018-08-30T06:31:19.020Z,1005.93
2018-08-30T06:32:18.994Z,1005.91
2018-08-30T06:33:18.976Z,1005.83
2018-08-30T06:34:18.944Z,1005.85
2018-08-30T06:35:18.920Z,1005.89
2018-08-30T06:36:18.886Z,1005.88
2018-08-30T06:37:18.861Z,1005.93
2018-08-30T06:38:18.839Z,1006.01
2018-08-30T06:39:18.812Z,1006.05
2018-08-30T06:40:18.785Z,1005.96
2018-08-30T06:41:18.763Z,1006.03
2018-08-30T06:42:18.732Z,1006.03
2018-08-30T06:43:18.712Z,1006.02
2018-08-30T06:44:19.585Z,1006.06
2018-08-30T06:45:18.668Z,1006.08
2018-08-30T06:46:18.640Z,1006.18
2018-08-30T06:47:18.612Z,1006.06
2018-08-30T06:48:18.580Z,1006.07
2018-08-30T06:49:18.552Z,1006.08
2018-08-30T06:50:18.536Z,1006.18
2018-08-30T06:51:18.503Z,1006.14
2018-08-30T06:52:18.473Z,1006.15
2018-08-30T06:53:18.451Z,1006.17
2018-08-30T06:54:18.431Z,1006.19
2018-08-30T06:55:18.394Z,1006.19
2018-08-30T06:56:18.444Z,1006.22
2018-08-30T06:57:18.356Z,1006.17
2018-08-30T06:58:18.329Z,1006.16
2018-08-30T06:59:18.308Z,1006.21
2018-08-30T07:00:18.268Z,1006.24
2018-08-30T07:01:18.243Z,1006.21
2018-08-30T07:02:18.231Z,1006.18
2018-08-30T07:03:18.194Z,1006.24
2018-08-30T07:04:18.216Z,1006.25
2018-08-30T07:05:18.140Z,1006.29
2018-08-30T07:06:18.115Z,1006.35
2018-08-30T07:07:18.088Z,1006.39
2018-08-30T07:08:18.167Z,1006.35
2018-08-30T07:09:18.045Z,1006.40
2018-08-30T07:10:18.015Z,1006.43
2018-08-30T07:11:17.984Z,1006.36
2018-08-30T07:12:17.966Z,1006.39
2018-08-30T07:13:17.944Z,1006.38
2018-08-30T07:14:17.914Z,1006.34
2018-08-30T07:15:17.897Z,1006.36
2018-08-30T07:16:17.862Z,1006.34
2018-08-30T07:17:17.835Z,1006.37
2018-08-30T07:18:17.802Z,1006.45
2018-08-30T07:19:17.787Z,1006.35
2018-08-30T07:20:17.769Z,1006.37
2018-08-30T07:21:17.729Z,1006.39
2018-08-30T07:22:17.703Z,1006.41
2018-08-30T07:23:17.679Z,1006.44
2018-08-30T07:24:17.714Z,1006.40
2018-08-30T07:25:17.652Z,1006.51
2018-08-30T07:26:17.597Z,1006.45
2018-08-30T07:27:17.578Z,1006.41
2018-08-30T07:28:17.554Z,1006.49
2018-08-30T07:29:17.530Z,1006.55
2018-08-30T07:30:17.496Z,1006.64
2018-08-30T07:31:17.471Z,1006.45
2018-08-30T07:32:17.442Z,1006.48
2018-08-30T07:33:17.418Z,1006.51
2018-08-30T07:34:17.414Z,1006.50
2018-08-30T07:35:17.371Z,1006.47
2018-08-30T07:36:17.357Z,1006.54
2018-08-30T07:37:17.322Z,1006.53
2018-08-30T07:38:17.291Z,1006.58
2018-08-30T07:39:17.273Z,1006.54
2018-08-30T07:40:17.239Z,1006.54
2018-08-30T07:41:17.215Z,1006.55
2018-08-30T07:42:17.192Z,1006.59
2018-08-30T07:43:17.167Z,1006.59
2018-08-30T07:44:17.205Z,1006.63
2018-08-30T07:45:17.110Z,1006.59
2018-08-30T07:46:17.088Z,1006.57
2018-08-30T07:47:17.133Z,1006.70
2018-08-30T07:48:17.034Z,1006.63
2018-08-30T07:49:17.015Z,1006.71
2018-08-30T07:50:16.980Z,1006.70
2018-08-30T07:51:16.968Z,1006.79
2018-08-30T07:52:16.929Z,1006.65
2018-08-30T07:53:16.903Z,1006.72
2018-08-30T07:54:16.889Z,1006.80
2018-08-30T07:55:17.602Z,1006.70
2018-08-30T07:56:16.835Z,1006.73
2018-08-30T07:57:16.861Z,1006.75
2018-08-30T07:58:16.787Z,1006.68
2018-08-30T07:59:16.760Z,1006.70
2018-08-30T08:00:16.732Z,1006.82
2018-08-30T08:01:16.699Z,1006.74
2018-08-30T08:02:16.675Z,1006.96
2018-08-30T08:03:16.654Z,1006.84
2018-08-30T08:04:16.620Z,1006.87
2018-08-30T08:05:16.599Z,1006.75
2018-08-30T08:06:16.577Z,1006.80
2018-08-30T08:07:16.564Z,1006.99
2018-08-30T08:08:16.577Z,1006.84
2018-08-30T08:09:16.495Z,1006.84
2018-08-30T08:10:16.471Z,1006.87
2018-08-30T08:11:16.443Z,1006.92
2018-08-30T08:12:16.419Z,1006.98
2018-08-30T08:13:17.105Z,1006.90
2018-08-30T08:14:16.365Z,1006.92
2018-08-30T08:15:16.345Z,1006.96
2018-08-30T08:16:16.317Z,1006.88
2018-08-30T08:17:16.298Z,1006.93
2018-08-30T08:18:16.264Z,1006.93
2018-08-30T08:19:16.241Z,1006.92
2018-08-30T08:20:16.211Z,1006.93
2018-08-30T08:21:16.190Z,1006.92
2018-08-30T08:22:16.164Z,1006.96
2018-08-30T08:23:16.140Z,1006.99
2018-08-30T08:24:16.107Z,1006.96
2018-08-30T08:25:16.132Z,1006.95
2018-08-30T08:26:16.058Z,1006.95
2018-08-30T08:27:16.034Z,1007.00
2018-08-30T08:28:16.009Z,1007.11
2018-08-30T08:29:15.977Z,1006.96
2018-08-30T08:30:15.955Z,1006.98
2018-08-30T08:31:16.641Z,1006.99
2018-08-30T08:32:15.911Z,1006.90
2018-08-30T08:33:16.010Z,1006.95
2018-08-30T08:34:15.854Z,1006.91
2018-08-30T08:35:15.836Z,1006.93
2018-08-30T08:36:15.799Z,1006.95
2018-08-30T08:37:15.772Z,1006.98
2018-08-30T08:38:15.755Z,1006.94
2018-08-30T08:39:15.718Z,1006.94
2018-08-30T08:40:15.703Z,1006.93
2018-08-30T08:41:15.671Z,1006.99
2018-08-30T08:42:15.650Z,1006.97
2018-08-30T08:43:15.628Z,1007.02
2018-08-30T08:44:15.593Z,1007.02
2018-08-30T08:45:15.576Z,1007.04
2018-08-30T08:46:15.547Z,1007.08
2018-08-30T08:47:15.525Z,1007.09
2018-08-30T08:48:15.498Z,1007.07
2018-08-30T08:49:16.111Z,1007.08
2018-08-30T08:50:15.443Z,1007.10
2018-08-30T08:51:15.465Z,1007.15
2018-08-30T08:52:15.390Z,1007.13
2018-08-30T08:53:15.373Z,1007.11
2018-08-30T08:54:15.338Z,1007.09
2018-08-30T08:55:15.328Z,1007.10
2018-08-30T08:56:15.286Z,1007.14
2018-08-30T08:57:15.266Z,1007.20
2018-08-30T08:58:15.239Z,1007.18
2018-08-30T08:59:15.298Z,1007.18
2018-08-30T09:00:15.196Z,1007.11
2018-08-30T09:01:15.176Z,1007.12
2018-08-30T09:02:15.135Z,1007.14
2018-08-30T09:03:15.109Z,1007.12
2018-08-30T09:04:15.091Z,1007.21
2018-08-30T09:05:15.067Z,1007.18
2018-08-30T09:06:15.038Z,1007.18
2018-08-30T09:07:15.121Z,1007.20
2018-08-30T09:08:14.987Z,1007.23
2018-08-30T09:09:14.962Z,1007.25
2018-08-30T09:10:14.932Z,1007.29
2018-08-30T09:11:14.905Z,1007.30
2018-08-30T09:12:14.887Z,1007.24
2018-08-30T09:13:14.863Z,1007.32
2018-08-30T09:14:14.832Z,1007.24
2018-08-30T09:15:14.805Z,1007.28
2018-08-30T09:16:14.783Z,1007.30
2018-08-30T09:17:14.752Z,1007.36
2018-08-30T09:18:14.744Z,1007.28
2018-08-30T09:19:14.708Z,1007.30
2018-08-30T09:20:14.684Z,1007.29
2018-08-30T09:21:14.659Z,1007.34
2018-08-30T09:22:14.626Z,1007.35
2018-08-30T09:23:14.643Z,1007.32
2018-08-30T09:24:14.600Z,1007.37
2018-08-30T09:25:14.580Z,1007.23
2018-08-30T09:26:14.553Z,1007.28
2018-08-30T09:27:14.577Z,1007.34
2018-08-30T09:28:14.502Z,1007.29
2018-08-30T09:29:14.476Z,1007.28
2018-08-30T09:30:14.440Z,1007.26
2018-08-30T09:31:14.404Z,1007.40
2018-08-30T09:32:14.379Z,1007.32
2018-08-30T09:33:14.351Z,1007.32
2018-08-30T09:34:14.331Z,1007.43
2018-08-30T09:35:14.294Z,1007.35
2018-08-30T09:36:14.275Z,1007.34
2018-08-30T09:37:14.253Z,1007.29
2018-08-30T09:38:14.227Z,1007.28
2018-08-30T09:39:14.204Z,1007.23
2018-08-30T09:40:14.171Z,1007.26
2018-08-30T09:41:14.170Z,1007.23
2018-08-30T09:42:14.122Z,1007.23
2018-08-30T09:43:14.104Z,1007.23
2018-08-30T09:44:14.069Z,1007.24
2018-08-30T09:45:14.057Z,1007.23
2018-08-30T09:46:14.029Z,1007.32
2018-08-30T09:47:13.988Z,1007.37
2018-08-30T09:48:13.973Z,1007.27
2018-08-30T09:49:13.945Z,1007.32
2018-08-30T09:50:13.925Z,1007.27
2018-08-30T09:51:13.890Z,1007.26
2018-08-30T09:52:13.881Z,1007.33
2018-08-30T09:53:13.841Z,1007.39
2018-08-30T09:54:13.900Z,1007.30
2018-08-30T09:55:13.793Z,1007.36
2018-08-30T09:56:13.769Z,1007.30
2018-08-30T09:57:13.868Z,1007.28
2018-08-30T09:58:13.714Z,1007.29
2018-08-30T09:59:13.687Z,1007.31
2018-08-30T10:00:13.668Z,1007.28
2018-08-30T10:01:13.644Z,1007.24
2018-08-30T10:02:13.609Z,1007.22
2018-08-30T10:03:13.593Z,1007.25
2018-08-30T10:04:13.559Z,1007.34
2018-08-30T10:05:13.544Z,1007.25
2018-08-30T10:06:13.512Z,1007.31
2018-08-30T10:07:13.492Z,1007.30
2018-08-30T10:08:13.463Z,1007.35
2018-08-30T10:09:13.438Z,1007.30
2018-08-30T10:10:13.423Z,1007.29
2018-08-30T10:11:13.391Z,1007.33
2018-08-30T10:12:13.364Z,1007.35
2018-08-30T10:13:13.334Z,1007.34
2018-08-30T10:14:13.314Z,1007.35
2018-08-30T10:15:13.283Z,1007.35
2018-08-30T10:16:13.266Z,1007.32
2018-08-30T10:17:13.235Z,1007.31
2018-08-30T10:18:13.217Z,1007.36
2018-08-30T10:19:13.199Z,1007.35
2018-08-30T10:20:13.166Z,1007.42
2018-08-30T10:21:13.131Z,1007.33
2018-08-30T10:22:13.114Z,1007.44
2018-08-30T10:23:13.084Z,1007.35
2018-08-30T10:24:13.068Z,1007.32
2018-08-30T10:25:13.051Z,1007.42
2018-08-30T10:26:13.011Z,1007.35
2018-08-30T10:27:12.987Z,1007.34
2018-08-30T10:28:12.954Z,1007.39
2018-08-30T10:29:12.932Z,1007.33
2018-08-30T10:30:12.911Z,1007.34
2018-08-30T10:31:12.885Z,1007.43
2018-08-30T10:32:12.864Z,1007.46
2018-08-30T10:33:12.829Z,1007.37
2018-08-30T10:34:12.812Z,1007.45
2018-08-30T10:35:12.783Z,1007.42
2018-08-30T10:36:12.755Z,1007.45
2018-08-30T10:37:12.731Z,1007.55
2018-08-30T10:38:12.707Z,1007.44
2018-08-30T10:39:12.680Z,1007.43
2018-08-30T10:40:12.662Z,1007.43
2018-08-30T10:41:12.630Z,1007.44
2018-08-30T10:42:12.603Z,1007.48
2018-08-30T10:43:12.595Z,1007.55
2018-08-30T10:44:12.571Z,1007.46
2018-08-30T10:45:12.527Z,1007.43
2018-08-30T10:46:12.504Z,1007.50
2018-08-30T10:47:12.566Z,1007.43
2018-08-30T10:48:12.452Z,1007.54
2018-08-30T10:49:12.436Z,1007.54
2018-08-30T10:50:12.402Z,1007.62
2018-08-30T10:51:12.376Z,1007.58
2018-08-30T10:52:12.359Z,1007.50
2018-08-30T10:53:12.328Z,1007.56
2018-08-30T10:54:12.304Z,1007.60
2018-08-30T10:55:12.272Z,1007.56
2018-08-30T10:56:12.256Z,1007.51
2018-08-30T10:57:12.225Z,1007.56
2018-08-30T10:58:12.206Z,1007.53
2018-08-30T10:59:12.172Z,1007.55
2018-08-30T11:00:12.151Z,1007.55
2018-08-30T11:01:12.132Z,1007.59
2018-08-30T11:02:12.102Z,1007.54
2018-08-30T11:03:12.069Z,1007.53
2018-08-30T11:04:12.080Z,1007.60
2018-08-30T11:05:12.027Z,1007.56
2018-08-30T11:06:12.005Z,1007.58
2018-08-30T11:07:11.978Z,1007.55
2018-08-30T11:08:11.945Z,1007.52
2018-08-30T11:09:11.931Z,1007.72
2018-08-30T11:10:11.901Z,1007.58
2018-08-30T11:11:11.871Z,1007.54
2018-08-30T11:12:11.850Z,1007.54
2018-08-30T11:13:12.640Z,1007.59
2018-08-30T11:14:11.795Z,1007.54
2018-08-30T11:15:11.775Z,1007.52
2018-08-30T11:16:11.754Z,1007.57
2018-08-30T11:17:11.728Z,1007.52
2018-08-30T11:18:11.699Z,1007.61
2018-08-30T11:19:11.671Z,1007.53
2018-08-30T11:20:11.650Z,1007.48
2018-08-30T11:21:11.623Z,1007.56
2018-08-30T11:22:11.598Z,1007.54
2018-08-30T11:23:11.574Z,1007.61
2018-08-30T11:24:11.546Z,1007.59
2018-08-30T11:25:11.523Z,1007.54
2018-08-30T11:26:11.503Z,1007.61
2018-08-30T11:27:11.486Z,1007.51
2018-08-30T11:28:11.445Z,1007.55
2018-08-30T11:29:11.429Z,1007.49
2018-08-30T11:30:11.394Z,1007.51
2018-08-30T11:31:11.368Z,1007.47
2018-08-30T11:32:11.348Z,1007.47
2018-08-30T11:33:11.319Z,1007.45
2018-08-30T11:34:11.304Z,1007.46
2018-08-30T11:35:11.273Z,1007.57
2018-08-30T11:36:11.252Z,1007.51
2018-08-30T11:37:11.228Z,1007.56
2018-08-30T11:38:11.196Z,1007.56
2018-08-30T11:39:11.176Z,1007.52
2018-08-30T11:40:11.142Z,1007.55
2018-08-30T11:41:11.172Z,1007.52
2018-08-30T11:42:11.095Z,1007.61
2018-08-30T11:43:11.101Z,1007.52
2018-08-30T11:44:11.043Z,1007.54
2018-08-30T11:45:11.018Z,1007.50
2018-08-30T11:46:11.001Z,1007.53
2018-08-30T11:47:10.969Z,1007.54
2018-08-30T11:48:10.953Z,1007.54
2018-08-30T11:49:10.925Z,1007.54
2018-08-30T11:50:10.895Z,1007.63
2018-08-30T11:51:10.894Z,1007.59
2018-08-30T11:52:10.853Z,1007.60
2018-08-30T11:53:10.828Z,1007.61
2018-08-30T11:54:10.847Z,1007.70
2018-08-30T11:55:10.767Z,1007.56
2018-08-30T11:56:10.758Z,1007.52
2018-08-30T11:57:10.724Z,1007.57
2018-08-30T11:58:10.697Z,1007.59
2018-08-30T11:59:10.665Z,1007.63
2018-08-30T12:00:10.647Z,1007.63
2018-08-30T12:01:10.626Z,1007.67
2018-08-30T12:02:10.598Z,1007.74
2018-08-30T12:03:10.584Z,1007.72
2018-08-30T12:04:10.551Z,1007.70
2018-08-30T12:05:10.519Z,1007.70